sensor_id;sensor_type;location;lat;lon;timestamp;P1;durP1;ratioP1;P2;durP2;ratioP2
1995;SDS011;38556;47.068;15.408;2023-10-08T00:02:09;34.60;;;32.00;;
1995;SDS011;38556;47.068;15.408;2023-10-08T00:04:41;33.43;;;30.87;;
1995;SDS011;38556;47.068;15.408;2023-10-08T00:07:09;31.20;;;28.80;;
1995;SDS011;38556;47.068;15.408;2023-10-08T00:09:37;32.97;;;30.37;;
1995;SDS011;38556;47.068;15.408;2023-10-08T00:12:04;32.63;;;30.03;;
1995;SDS011;38556;47.068;15.408;2023-10-08T00:14:33;33.40;;;30.80;;
1995;SDS011;38556;47.068;15.408;2023-10-08T00:17:10;34.10;;;31.30;;
1995;SDS011;38556;47.068;15.408;2023-10-08T00:19:38;34.13;;;31.33;;
1995;SDS011;38556;47.068;15.408;2023-10-08T00:22:09;33.57;;;30.87;;
1995;SDS011;38556;47.068;15.408;2023-10-08T00:24:39;33.17;;;30.30;;
1995;SDS011;38556;47.068;15.408;2023-10-08T00:27:07;34.93;;;31.93;;
1995;SDS011;38556;47.068;15.408;2023-10-08T00:29:35;33.00;;;30.20;;
1995;SDS011;38556;47.068;15.408;2023-10-08T00:32:05;33.43;;;30.83;;
1995;SDS011;38556;47.068;15.408;2023-10-08T00:34:38;33.50;;;30.80;;
1995;SDS011;38556;47.068;15.408;2023-10-08T00:37:10;32.80;;;30.07;;
1995;SDS011;38556;47.068;15.408;2023-10-08T00:39:40;34.60;;;31.97;;
1995;SDS011;38556;47.068;15.408;2023-10-08T00:42:08;33.33;;;30.73;;
1995;SDS011;38556;47.068;15.408;2023-10-08T00:44:38;34.40;;;31.70;;
1995;SDS011;38556;47.068;15.408;2023-10-08T00:47:13;35.27;;;32.67;;
1995;SDS011;38556;47.068;15.408;2023-10-08T00:49:46;37.63;;;34.87;;
1995;SDS011;38556;47.068;15.408;2023-10-08T00:52:31;35.50;;;32.90;;
1995;SDS011;38556;47.068;15.408;2023-10-08T00:55:08;37.60;;;34.60;;
1995;SDS011;38556;47.068;15.408;2023-10-08T00:57:45;35.97;;;33.20;;
1995;SDS011;38556;47.068;15.408;2023-10-08T01:00:18;34.50;;;32.00;;
1995;SDS011;38556;47.068;15.408;2023-10-08T01:02:48;36.87;;;34.07;;
1995;SDS011;38556;47.068;15.408;2023-10-08T01:05:25;35.60;;;32.90;;
1995;SDS011;38556;47.068;15.408;2023-10-08T01:08:09;35.43;;;32.73;;
1995;SDS011;38556;47.068;15.408;2023-10-08T01:10:40;34.70;;;31.90;;
1995;SDS011;38556;47.068;15.408;2023-10-08T01:13:09;34.40;;;31.80;;
1995;SDS011;38556;47.068;15.408;2023-10-08T01:15:41;35.63;;;32.90;;
1995;SDS011;38556;47.068;15.408;2023-10-08T01:18:11;35.03;;;32.07;;
1995;SDS011;38556;47.068;15.408;2023-10-08T01:20:42;33.13;;;30.73;;
1995;SDS011;38556;47.068;15.408;2023-10-08T01:23:19;34.50;;;31.90;;
1995;SDS011;38556;47.068;15.408;2023-10-08T01:25:48;32.33;;;29.93;;
1995;SDS011;38556;47.068;15.408;2023-10-08T01:28:18;34.40;;;31.60;;
1995;SDS011;38556;47.068;15.408;2023-10-08T01:30:54;33.60;;;30.97;;
1995;SDS011;38556;47.068;15.408;2023-10-08T01:33:26;33.43;;;30.83;;
1995;SDS011;38556;47.068;15.408;2023-10-08T01:35:54;32.03;;;29.53;;
1995;SDS011;38556;47.068;15.408;2023-10-08T01:38:29;34.87;;;31.97;;
1995;SDS011;38556;47.068;15.408;2023-10-08T01:40:58;33.80;;;31.13;;
1995;SDS011;38556;47.068;15.408;2023-10-08T01:43:29;35.17;;;32.47;;
1995;SDS011;38556;47.068;15.408;2023-10-08T01:45:56;34.27;;;31.67;;
1995;SDS011;38556;47.068;15.408;2023-10-08T01:48:24;34.30;;;31.73;;
1995;SDS011;38556;47.068;15.408;2023-10-08T01:51:01;34.53;;;31.83;;
1995;SDS011;38556;47.068;15.408;2023-10-08T01:53:36;33.80;;;31.30;;
1995;SDS011;38556;47.068;15.408;2023-10-08T01:56:03;34.27;;;31.57;;
1995;SDS011;38556;47.068;15.408;2023-10-08T01:58:32;33.90;;;31.30;;
1995;SDS011;38556;47.068;15.408;2023-10-08T02:00:59;33.80;;;31.13;;
1995;SDS011;38556;47.068;15.408;2023-10-08T02:03:30;34.30;;;31.70;;
1995;SDS011;38556;47.068;15.408;2023-10-08T02:05:59;35.43;;;32.60;;
1995;SDS011;38556;47.068;15.408;2023-10-08T02:08:31;33.90;;;31.40;;
1995;SDS011;38556;47.068;15.408;2023-10-08T02:11:00;34.37;;;31.67;;
1995;SDS011;38556;47.068;15.408;2023-10-08T02:13:28;35.33;;;32.83;;
1995;SDS011;38556;47.068;15.408;2023-10-08T02:15:56;36.53;;;33.93;;
1995;SDS011;38556;47.068;15.408;2023-10-08T02:18:23;36.30;;;33.50;;
1995;SDS011;38556;47.068;15.408;2023-10-08T02:20:50;36.60;;;33.60;;
1995;SDS011;38556;47.068;15.408;2023-10-08T02:23:18;34.23;;;31.70;;
1995;SDS011;38556;47.068;15.408;2023-10-08T02:25:46;32.93;;;30.43;;
1995;SDS011;38556;47.068;15.408;2023-10-08T02:28:15;33.87;;;31.10;;
1995;SDS011;38556;47.068;15.408;2023-10-08T02:30:45;34.40;;;31.60;;
1995;SDS011;38556;47.068;15.408;2023-10-08T02:33:12;35.30;;;32.50;;
1995;SDS011;38556;47.068;15.408;2023-10-08T02:35:41;34.53;;;31.83;;
1995;SDS011;38556;47.068;15.408;2023-10-08T02:38:09;34.23;;;31.73;;
1995;SDS011;38556;47.068;15.408;2023-10-08T02:40:38;35.07;;;32.53;;
1995;SDS011;38556;47.068;15.408;2023-10-08T02:43:10;34.37;;;31.57;;
1995;SDS011;38556;47.068;15.408;2023-10-08T02:45:41;36.10;;;33.40;;
1995;SDS011;38556;47.068;15.408;2023-10-08T02:48:12;34.87;;;32.07;;
1995;SDS011;38556;47.068;15.408;2023-10-08T02:50:41;34.87;;;32.27;;
1995;SDS011;38556;47.068;15.408;2023-10-08T02:53:10;34.93;;;32.13;;
1995;SDS011;38556;47.068;15.408;2023-10-08T02:55:38;35.22;;;32.63;;
1995;SDS011;38556;47.068;15.408;2023-10-08T02:58:09;35.97;;;32.87;;
1995;SDS011;38556;47.068;15.408;2023-10-08T03:00:42;35.87;;;33.07;;
1995;SDS011;38556;47.068;15.408;2023-10-08T03:03:12;35.17;;;32.63;;
1995;SDS011;38556;47.068;15.408;2023-10-08T03:05:43;36.50;;;33.70;;
1995;SDS011;38556;47.068;15.408;2023-10-08T03:08:12;35.87;;;33.10;;
1995;SDS011;38556;47.068;15.408;2023-10-08T03:10:46;35.50;;;32.57;;
1995;SDS011;38556;47.068;15.408;2023-10-08T03:13:14;35.73;;;33.03;;
1995;SDS011;38556;47.068;15.408;2023-10-08T03:15:43;34.60;;;32.00;;
1995;SDS011;38556;47.068;15.408;2023-10-08T03:18:23;34.70;;;32.00;;
1995;SDS011;38556;47.068;15.408;2023-10-08T03:20:51;35.97;;;32.80;;
1995;SDS011;38556;47.068;15.408;2023-10-08T03:23:18;34.20;;;31.25;;
1995;SDS011;38556;47.068;15.408;2023-10-08T03:25:51;35.45;;;32.80;;
1995;SDS011;38556;47.068;15.408;2023-10-08T03:28:24;36.20;;;33.40;;
1995;SDS011;38556;47.068;15.408;2023-10-08T03:30:55;36.55;;;33.80;;
1995;SDS011;38556;47.068;15.408;2023-10-08T03:33:30;33.30;;;30.70;;
1995;SDS011;38556;47.068;15.408;2023-10-08T03:36:00;33.33;;;30.77;;
1995;SDS011;38556;47.068;15.408;2023-10-08T03:38:36;34.08;;;31.30;;
1995;SDS011;38556;47.068;15.408;2023-10-08T03:41:17;34.15;;;31.33;;
1995;SDS011;38556;47.068;15.408;2023-10-08T03:43:52;34.28;;;31.67;;
1995;SDS011;38556;47.068;15.408;2023-10-08T03:46:29;35.03;;;32.38;;
1995;SDS011;38556;47.068;15.408;2023-10-08T03:48:56;34.60;;;31.90;;
1995;SDS011;38556;47.068;15.408;2023-10-08T03:51:30;34.10;;;31.50;;
1995;SDS011;38556;47.068;15.408;2023-10-08T03:54:04;34.67;;;31.67;;
1995;SDS011;38556;47.068;15.408;2023-10-08T03:56:44;35.07;;;32.27;;
1995;SDS011;38556;47.068;15.408;2023-10-08T03:59:13;34.70;;;31.87;;
1995;SDS011;38556;47.068;15.408;2023-10-08T04:01:47;40.90;;;38.00;;
1995;SDS011;38556;47.068;15.408;2023-10-08T04:04:19;38.05;;;35.40;;
1995;SDS011;38556;47.068;15.408;2023-10-08T04:06:56;39.77;;;36.77;;
1995;SDS011;38556;47.068;15.408;2023-10-08T04:09:43;40.60;;;37.50;;
1995;SDS011;38556;47.068;15.408;2023-10-08T04:12:13;38.40;;;35.40;;
1995;SDS011;38556;47.068;15.408;2023-10-08T04:14:44;40.07;;;37.03;;
1995;SDS011;38556;47.068;15.408;2023-10-08T04:17:14;41.40;;;38.10;;
1995;SDS011;38556;47.068;15.408;2023-10-08T04:19:47;39.17;;;36.27;;
1995;SDS011;38556;47.068;15.408;2023-10-08T04:22:17;38.87;;;35.87;;
1995;SDS011;38556;47.068;15.408;2023-10-08T04:24:44;39.83;;;36.83;;
1995;SDS011;38556;47.068;15.408;2023-10-08T04:27:12;37.40;;;34.60;;
1995;SDS011;38556;47.068;15.408;2023-10-08T04:29:40;39.60;;;36.43;;
1995;SDS011;38556;47.068;15.408;2023-10-08T04:32:08;39.87;;;36.87;;
1995;SDS011;38556;47.068;15.408;2023-10-08T04:34:38;40.50;;;37.50;;
1995;SDS011;38556;47.068;15.408;2023-10-08T04:37:11;38.30;;;35.50;;
1995;SDS011;38556;47.068;15.408;2023-10-08T04:39:38;39.07;;;36.00;;
1995;SDS011;38556;47.068;15.408;2023-10-08T04:42:13;38.50;;;35.80;;
1995;SDS011;38556;47.068;15.408;2023-10-08T04:44:50;38.43;;;35.63;;
1995;SDS011;38556;47.068;15.408;2023-10-08T04:47:20;38.53;;;35.72;;
1995;SDS011;38556;47.068;15.408;2023-10-08T04:49:59;38.30;;;35.40;;
1995;SDS011;38556;47.068;15.408;2023-10-08T04:52:30;37.83;;;35.13;;
1995;SDS011;38556;47.068;15.408;2023-10-08T04:54:59;42.22;;;39.13;;
1995;SDS011;38556;47.068;15.408;2023-10-08T04:57:38;39.58;;;36.50;;
1995;SDS011;38556;47.068;15.408;2023-10-08T05:00:08;37.25;;;34.50;;
1995;SDS011;38556;47.068;15.408;2023-10-08T05:02:40;38.45;;;35.50;;
1995;SDS011;38556;47.068;15.408;2023-10-08T05:05:15;44.90;;;41.20;;
1995;SDS011;38556;47.068;15.408;2023-10-08T05:07:49;37.57;;;34.70;;
1995;SDS011;38556;47.068;15.408;2023-10-08T05:10:34;37.33;;;34.47;;
1995;SDS011;38556;47.068;15.408;2023-10-08T05:13:39;38.13;;;35.27;;
1995;SDS011;38556;47.068;15.408;2023-10-08T05:16:21;39.80;;;36.90;;
1995;SDS011;38556;47.068;15.408;2023-10-08T05:19:02;37.42;;;34.35;;
1995;SDS011;38556;47.068;15.408;2023-10-08T05:21:50;38.03;;;35.13;;
1995;SDS011;38556;47.068;15.408;2023-10-08T05:24:28;35.10;;;32.60;;
1995;SDS011;38556;47.068;15.408;2023-10-08T05:27:04;36.73;;;33.73;;
1995;SDS011;38556;47.068;15.408;2023-10-08T05:30:02;37.17;;;34.17;;
1995;SDS011;38556;47.068;15.408;2023-10-08T05:32:41;36.50;;;33.90;;
1995;SDS011;38556;47.068;15.408;2023-10-08T05:35:32;36.85;;;34.25;;
1995;SDS011;38556;47.068;15.408;2023-10-08T05:38:16;37.83;;;35.10;;
1995;SDS011;38556;47.068;15.408;2023-10-08T05:40:56;37.93;;;35.03;;
1995;SDS011;38556;47.068;15.408;2023-10-08T05:43:53;36.80;;;34.00;;
1995;SDS011;38556;47.068;15.408;2023-10-08T05:46:39;35.97;;;33.17;;
1995;SDS011;38556;47.068;15.408;2023-10-08T05:49:12;36.63;;;33.60;;
1995;SDS011;38556;47.068;15.408;2023-10-08T05:51:52;37.00;;;34.00;;
1995;SDS011;38556;47.068;15.408;2023-10-08T05:54:52;36.23;;;33.33;;
1995;SDS011;38556;47.068;15.408;2023-10-08T05:57:41;35.20;;;32.40;;
1995;SDS011;38556;47.068;15.408;2023-10-08T06:00:17;36.90;;;33.97;;
1995;SDS011;38556;47.068;15.408;2023-10-08T06:03:03;39.03;;;36.07;;
1995;SDS011;38556;47.068;15.408;2023-10-08T06:05:47;35.77;;;32.97;;
1995;SDS011;38556;47.068;15.408;2023-10-08T06:08:33;35.80;;;33.07;;
1995;SDS011;38556;47.068;15.408;2023-10-08T06:11:16;34.73;;;32.07;;
1995;SDS011;38556;47.068;15.408;2023-10-08T06:13:56;36.87;;;33.67;;
1995;SDS011;38556;47.068;15.408;2023-10-08T06:16:26;36.53;;;33.50;;
1995;SDS011;38556;47.068;15.408;2023-10-08T06:19:07;34.77;;;31.87;;
1995;SDS011;38556;47.068;15.408;2023-10-08T06:21:35;37.37;;;34.17;;
1995;SDS011;38556;47.068;15.408;2023-10-08T06:24:04;35.10;;;32.30;;
1995;SDS011;38556;47.068;15.408;2023-10-08T06:26:36;36.17;;;33.03;;
1995;SDS011;38556;47.068;15.408;2023-10-08T06:29:09;33.93;;;31.13;;
1995;SDS011;38556;47.068;15.408;2023-10-08T06:31:52;37.47;;;34.33;;
1995;SDS011;38556;47.068;15.408;2023-10-08T06:34:21;36.23;;;33.10;;
1995;SDS011;38556;47.068;15.408;2023-10-08T06:36:53;36.27;;;33.30;;
1995;SDS011;38556;47.068;15.408;2023-10-08T06:39:21;36.07;;;33.33;;
1995;SDS011;38556;47.068;15.408;2023-10-08T06:41:53;37.00;;;33.80;;
1995;SDS011;38556;47.068;15.408;2023-10-08T06:44:24;38.00;;;34.97;;
1995;SDS011;38556;47.068;15.408;2023-10-08T06:46:53;36.30;;;33.53;;
1995;SDS011;38556;47.068;15.408;2023-10-08T06:49:22;35.50;;;32.60;;
1995;SDS011;38556;47.068;15.408;2023-10-08T06:51:50;37.60;;;34.47;;
1995;SDS011;38556;47.068;15.408;2023-10-08T06:54:19;37.30;;;34.60;;
1995;SDS011;38556;47.068;15.408;2023-10-08T06:56:47;37.83;;;34.93;;
1995;SDS011;38556;47.068;15.408;2023-10-08T06:59:20;42.85;;;39.35;;
1995;SDS011;38556;47.068;15.408;2023-10-08T07:01:49;39.60;;;36.40;;
1995;SDS011;38556;47.068;15.408;2023-10-08T07:04:17;36.93;;;33.97;;
1995;SDS011;38556;47.068;15.408;2023-10-08T07:06:47;36.90;;;34.20;;
1995;SDS011;38556;47.068;15.408;2023-10-08T07:09:16;36.50;;;33.70;;
1995;SDS011;38556;47.068;15.408;2023-10-08T07:11:54;36.50;;;33.77;;
1995;SDS011;38556;47.068;15.408;2023-10-08T07:14:23;38.10;;;35.17;;
1995;SDS011;38556;47.068;15.408;2023-10-08T07:16:52;35.63;;;32.67;;
1995;SDS011;38556;47.068;15.408;2023-10-08T07:19:21;36.00;;;32.90;;
1995;SDS011;38556;47.068;15.408;2023-10-08T07:21:58;37.93;;;33.43;;
1995;SDS011;38556;47.068;15.408;2023-10-08T07:24:29;35.30;;;32.53;;
1995;SDS011;38556;47.068;15.408;2023-10-08T07:38:48;39.20;;;35.50;;
1995;SDS011;38556;47.068;15.408;2023-10-08T07:41:16;37.70;;;34.60;;
1995;SDS011;38556;47.068;15.408;2023-10-08T07:43:45;39.10;;;36.17;;
1995;SDS011;38556;47.068;15.408;2023-10-08T07:46:19;36.93;;;33.90;;
1995;SDS011;38556;47.068;15.408;2023-10-08T07:48:46;37.90;;;34.60;;
1995;SDS011;38556;47.068;15.408;2023-10-08T07:51:13;36.00;;;33.10;;
1995;SDS011;38556;47.068;15.408;2023-10-08T07:53:42;38.03;;;34.87;;
1995;SDS011;38556;47.068;15.408;2023-10-08T07:56:11;35.00;;;32.00;;
1995;SDS011;38556;47.068;15.408;2023-10-08T07:58:39;38.43;;;35.60;;
1995;SDS011;38556;47.068;15.408;2023-10-08T08:01:08;37.17;;;34.37;;
1995;SDS011;38556;47.068;15.408;2023-10-08T08:03:39;36.23;;;33.47;;
1995;SDS011;38556;47.068;15.408;2023-10-08T08:06:07;37.37;;;34.10;;
1995;SDS011;38556;47.068;15.408;2023-10-08T08:08:35;36.83;;;34.03;;
1995;SDS011;38556;47.068;15.408;2023-10-08T08:11:04;36.53;;;33.10;;
1995;SDS011;38556;47.068;15.408;2023-10-08T08:13:38;37.53;;;34.20;;
1995;SDS011;38556;47.068;15.408;2023-10-08T08:16:08;39.83;;;36.23;;
1995;SDS011;38556;47.068;15.408;2023-10-08T08:18:41;37.10;;;33.70;;
1995;SDS011;38556;47.068;15.408;2023-10-08T08:21:09;37.57;;;34.00;;
1995;SDS011;38556;47.068;15.408;2023-10-08T08:23:40;38.93;;;35.93;;
1995;SDS011;38556;47.068;15.408;2023-10-08T08:26:14;39.50;;;36.53;;
1995;SDS011;38556;47.068;15.408;2023-10-08T08:28:53;36.77;;;34.00;;
1995;SDS011;38556;47.068;15.408;2023-10-08T08:31:23;36.53;;;33.53;;
1995;SDS011;38556;47.068;15.408;2023-10-08T08:33:51;38.77;;;35.60;;
1995;SDS011;38556;47.068;15.408;2023-10-08T08:36:26;35.53;;;32.57;;
1995;SDS011;38556;47.068;15.408;2023-10-08T08:38:54;38.37;;;35.50;;
1995;SDS011;38556;47.068;15.408;2023-10-08T08:41:22;36.57;;;33.43;;
1995;SDS011;38556;47.068;15.408;2023-10-08T08:43:50;38.20;;;35.00;;
1995;SDS011;38556;47.068;15.408;2023-10-08T08:46:31;36.67;;;33.60;;
1995;SDS011;38556;47.068;15.408;2023-10-08T08:49:01;36.97;;;34.27;;
1995;SDS011;38556;47.068;15.408;2023-10-08T08:51:30;37.90;;;34.90;;
1995;SDS011;38556;47.068;15.408;2023-10-08T08:53:58;39.17;;;36.17;;
1995;SDS011;38556;47.068;15.408;2023-10-08T08:56:26;36.47;;;32.87;;
1995;SDS011;38556;47.068;15.408;2023-10-08T08:58:56;36.90;;;33.83;;
1995;SDS011;38556;47.068;15.408;2023-10-08T09:01:25;37.50;;;34.40;;
1995;SDS011;38556;47.068;15.408;2023-10-08T09:03:59;38.33;;;35.37;;
1995;SDS011;38556;47.068;15.408;2023-10-08T09:06:32;37.53;;;33.83;;
1995;SDS011;38556;47.068;15.408;2023-10-08T09:08:59;37.80;;;34.33;;
1995;SDS011;38556;47.068;15.408;2023-10-08T09:11:40;36.20;;;32.87;;
1995;SDS011;38556;47.068;15.408;2023-10-08T09:14:08;37.47;;;34.17;;
1995;SDS011;38556;47.068;15.408;2023-10-08T09:16:36;36.70;;;33.33;;
1995;SDS011;38556;47.068;15.408;2023-10-08T09:19:05;35.40;;;32.33;;
1995;SDS011;38556;47.068;15.408;2023-10-08T09:21:37;40.10;;;36.73;;
1995;SDS011;38556;47.068;15.408;2023-10-08T09:24:06;37.33;;;34.10;;
1995;SDS011;38556;47.068;15.408;2023-10-08T09:26:36;37.40;;;34.33;;
1995;SDS011;38556;47.068;15.408;2023-10-08T09:29:05;36.30;;;33.37;;
1995;SDS011;38556;47.068;15.408;2023-10-08T09:31:37;36.57;;;33.47;;
1995;SDS011;38556;47.068;15.408;2023-10-08T09:34:06;37.43;;;34.53;;
1995;SDS011;38556;47.068;15.408;2023-10-08T09:36:33;37.10;;;33.83;;
1995;SDS011;38556;47.068;15.408;2023-10-08T09:39:02;38.10;;;35.07;;
1995;SDS011;38556;47.068;15.408;2023-10-08T09:41:31;35.00;;;32.30;;
1995;SDS011;38556;47.068;15.408;2023-10-08T09:43:59;38.57;;;35.40;;
1995;SDS011;38556;47.068;15.408;2023-10-08T09:46:29;36.87;;;33.70;;
1995;SDS011;38556;47.068;15.408;2023-10-08T09:48:59;40.20;;;36.83;;
1995;SDS011;38556;47.068;15.408;2023-10-08T09:51:33;40.00;;;36.70;;
1995;SDS011;38556;47.068;15.408;2023-10-08T09:54:05;39.67;;;35.80;;
1995;SDS011;38556;47.068;15.408;2023-10-08T09:56:39;37.10;;;33.93;;
1995;SDS011;38556;47.068;15.408;2023-10-08T09:59:09;38.67;;;35.07;;
1995;SDS011;38556;47.068;15.408;2023-10-08T10:01:36;38.93;;;35.30;;
1995;SDS011;38556;47.068;15.408;2023-10-08T10:04:06;40.30;;;37.20;;
1995;SDS011;38556;47.068;15.408;2023-10-08T10:06:36;38.40;;;35.20;;
1995;SDS011;38556;47.068;15.408;2023-10-08T10:09:05;39.13;;;35.90;;
1995;SDS011;38556;47.068;15.408;2023-10-08T10:11:45;36.83;;;33.90;;
1995;SDS011;38556;47.068;15.408;2023-10-08T10:14:15;36.17;;;33.03;;
1995;SDS011;38556;47.068;15.408;2023-10-08T10:16:43;36.70;;;33.70;;
1995;SDS011;38556;47.068;15.408;2023-10-08T10:19:16;37.03;;;33.70;;
1995;SDS011;38556;47.068;15.408;2023-10-08T10:21:46;36.40;;;33.00;;
1995;SDS011;38556;47.068;15.408;2023-10-08T10:24:27;33.43;;;30.43;;
1995;SDS011;38556;47.068;15.408;2023-10-08T10:27:09;35.07;;;31.97;;
1995;SDS011;38556;47.068;15.408;2023-10-08T10:29:37;35.77;;;32.37;;
1995;SDS011;38556;47.068;15.408;2023-10-08T10:32:05;38.33;;;35.10;;
1995;SDS011;38556;47.068;15.408;2023-10-08T10:34:32;37.27;;;34.30;;
1995;SDS011;38556;47.068;15.408;2023-10-08T10:37:07;50.93;;;46.63;;
1995;SDS011;38556;47.068;15.408;2023-10-08T10:39:52;37.43;;;34.20;;
1995;SDS011;38556;47.068;15.408;2023-10-08T10:42:24;38.83;;;35.63;;
1995;SDS011;38556;47.068;15.408;2023-10-08T10:44:54;39.10;;;35.70;;
1995;SDS011;38556;47.068;15.408;2023-10-08T10:47:23;39.30;;;35.80;;
1995;SDS011;38556;47.068;15.408;2023-10-08T10:50:08;37.67;;;34.30;;
1995;SDS011;38556;47.068;15.408;2023-10-08T10:52:58;37.50;;;34.10;;
1995;SDS011;38556;47.068;15.408;2023-10-08T10:55:34;37.97;;;34.47;;
1995;SDS011;38556;47.068;15.408;2023-10-08T10:58:03;38.40;;;35.00;;
1995;SDS011;38556;47.068;15.408;2023-10-08T11:00:36;38.03;;;34.60;;
1995;SDS011;38556;47.068;15.408;2023-10-08T11:03:15;39.70;;;36.43;;
1995;SDS011;38556;47.068;15.408;2023-10-08T11:05:42;39.10;;;35.80;;
1995;SDS011;38556;47.068;15.408;2023-10-08T11:08:16;39.53;;;36.23;;
1995;SDS011;38556;47.068;15.408;2023-10-08T11:10:47;38.43;;;35.23;;
1995;SDS011;38556;47.068;15.408;2023-10-08T11:13:17;37.43;;;34.27;;
1995;SDS011;38556;47.068;15.408;2023-10-08T11:15:54;39.83;;;36.10;;
1995;SDS011;38556;47.068;15.408;2023-10-08T11:18:24;36.97;;;34.00;;
1995;SDS011;38556;47.068;15.408;2023-10-08T11:21:04;37.03;;;33.83;;
1995;SDS011;38556;47.068;15.408;2023-10-08T11:23:42;35.40;;;32.37;;
1995;SDS011;38556;47.068;15.408;2023-10-08T11:26:18;40.40;;;37.27;;
1995;SDS011;38556;47.068;15.408;2023-10-08T11:28:47;38.43;;;35.20;;
1995;SDS011;38556;47.068;15.408;2023-10-08T11:31:15;37.20;;;34.20;;
1995;SDS011;38556;47.068;15.408;2023-10-08T11:33:45;39.27;;;36.10;;
1995;SDS011;38556;47.068;15.408;2023-10-08T11:36:20;36.80;;;33.27;;
1995;SDS011;38556;47.068;15.408;2023-10-08T11:38:54;37.27;;;34.00;;
1995;SDS011;38556;47.068;15.408;2023-10-08T11:41:27;36.57;;;33.83;;
1995;SDS011;38556;47.068;15.408;2023-10-08T11:43:56;37.73;;;34.77;;
1995;SDS011;38556;47.068;15.408;2023-10-08T11:46:25;36.40;;;33.03;;
1995;SDS011;38556;47.068;15.408;2023-10-08T11:48:58;32.80;;;30.20;;
1995;SDS011;38556;47.068;15.408;2023-10-08T11:51:30;34.83;;;32.23;;
1995;SDS011;38556;47.068;15.408;2023-10-08T11:54:01;33.93;;;30.70;;
1995;SDS011;38556;47.068;15.408;2023-10-08T11:56:31;33.83;;;31.23;;
1995;SDS011;38556;47.068;15.408;2023-10-08T11:58:59;34.40;;;31.50;;
1995;SDS011;38556;47.068;15.408;2023-10-08T12:01:34;36.13;;;33.00;;
1995;SDS011;38556;47.068;15.408;2023-10-08T12:04:03;33.80;;;31.00;;
1995;SDS011;38556;47.068;15.408;2023-10-08T12:06:38;34.00;;;30.90;;
1995;SDS011;38556;47.068;15.408;2023-10-08T12:09:13;32.70;;;29.80;;
1995;SDS011;38556;47.068;15.408;2023-10-08T12:11:41;30.90;;;28.50;;
1995;SDS011;38556;47.068;15.408;2023-10-08T12:14:09;31.87;;;29.10;;
1995;SDS011;38556;47.068;15.408;2023-10-08T12:16:37;33.97;;;31.17;;
1995;SDS011;38556;47.068;15.408;2023-10-08T12:19:05;34.80;;;32.20;;
1995;SDS011;38556;47.068;15.408;2023-10-08T12:21:41;32.63;;;29.80;;
1995;SDS011;38556;47.068;15.408;2023-10-08T12:24:11;32.70;;;30.00;;
1995;SDS011;38556;47.068;15.408;2023-10-08T12:26:40;32.20;;;29.77;;
1995;SDS011;38556;47.068;15.408;2023-10-08T12:29:11;34.47;;;31.10;;
1995;SDS011;38556;47.068;15.408;2023-10-08T12:31:40;34.77;;;31.97;;
1995;SDS011;38556;47.068;15.408;2023-10-08T12:34:07;31.73;;;28.83;;
1995;SDS011;38556;47.068;15.408;2023-10-08T12:36:37;33.73;;;30.90;;
1995;SDS011;38556;47.068;15.408;2023-10-08T12:39:04;33.43;;;30.50;;
1995;SDS011;38556;47.068;15.408;2023-10-08T12:41:42;31.27;;;28.70;;
1995;SDS011;38556;47.068;15.408;2023-10-08T12:44:09;32.40;;;29.17;;
1995;SDS011;38556;47.068;15.408;2023-10-08T12:46:37;32.63;;;29.83;;
1995;SDS011;38556;47.068;15.408;2023-10-08T12:49:04;33.63;;;30.43;;
1995;SDS011;38556;47.068;15.408;2023-10-08T12:51:33;33.00;;;30.07;;
1995;SDS011;38556;47.068;15.408;2023-10-08T12:54:01;31.90;;;29.20;;
1995;SDS011;38556;47.068;15.408;2023-10-08T12:56:32;31.97;;;29.30;;
1995;SDS011;38556;47.068;15.408;2023-10-08T12:59:06;32.50;;;29.17;;
1995;SDS011;38556;47.068;15.408;2023-10-08T13:01:34;32.10;;;29.10;;
1995;SDS011;38556;47.068;15.408;2023-10-08T13:04:06;32.33;;;29.73;;
1995;SDS011;38556;47.068;15.408;2023-10-08T13:06:42;33.57;;;30.97;;
1995;SDS011;38556;47.068;15.408;2023-10-08T13:09:12;33.50;;;30.80;;
1995;SDS011;38556;47.068;15.408;2023-10-08T13:11:41;33.70;;;31.10;;
1995;SDS011;38556;47.068;15.408;2023-10-08T13:14:13;32.90;;;30.20;;
1995;SDS011;38556;47.068;15.408;2023-10-08T13:16:42;33.77;;;30.87;;
1995;SDS011;38556;47.068;15.408;2023-10-08T13:19:11;33.57;;;30.30;;
1995;SDS011;38556;47.068;15.408;2023-10-08T13:21:42;35.63;;;32.33;;
1995;SDS011;38556;47.068;15.408;2023-10-08T13:24:11;33.73;;;30.77;;
1995;SDS011;38556;47.068;15.408;2023-10-08T13:26:43;34.83;;;31.50;;
1995;SDS011;38556;47.068;15.408;2023-10-08T13:29:15;35.13;;;32.13;;
1995;SDS011;38556;47.068;15.408;2023-10-08T13:31:44;33.83;;;30.40;;
1995;SDS011;38556;47.068;15.408;2023-10-08T13:34:13;34.33;;;31.30;;
1995;SDS011;38556;47.068;15.408;2023-10-08T13:36:42;35.97;;;32.27;;
1995;SDS011;38556;47.068;15.408;2023-10-08T13:39:13;32.40;;;29.40;;
1995;SDS011;38556;47.068;15.408;2023-10-08T13:41:44;32.93;;;30.30;;
1995;SDS011;38556;47.068;15.408;2023-10-08T13:44:16;34.20;;;30.90;;
1995;SDS011;38556;47.068;15.408;2023-10-08T13:46:54;31.93;;;29.07;;
1995;SDS011;38556;47.068;15.408;2023-10-08T13:49:24;33.87;;;30.43;;
1995;SDS011;38556;47.068;15.408;2023-10-08T13:51:55;31.87;;;29.47;;
1995;SDS011;38556;47.068;15.408;2023-10-08T13:54:24;33.80;;;30.43;;
1995;SDS011;38556;47.068;15.408;2023-10-08T13:56:55;31.73;;;28.73;;
1995;SDS011;38556;47.068;15.408;2023-10-08T13:59:26;34.20;;;31.27;;
1995;SDS011;38556;47.068;15.408;2023-10-08T14:01:57;33.73;;;30.50;;
1995;SDS011;38556;47.068;15.408;2023-10-08T14:04:28;33.40;;;30.70;;
1995;SDS011;38556;47.068;15.408;2023-10-08T14:07:00;32.50;;;29.80;;
1995;SDS011;38556;47.068;15.408;2023-10-08T14:09:30;34.30;;;31.60;;
1995;SDS011;38556;47.068;15.408;2023-10-08T14:12:02;33.10;;;30.13;;
1995;SDS011;38556;47.068;15.408;2023-10-08T14:14:34;35.40;;;32.27;;
1995;SDS011;38556;47.068;15.408;2023-10-08T14:17:07;33.37;;;30.43;;
1995;SDS011;38556;47.068;15.408;2023-10-08T14:19:41;33.93;;;30.70;;
1995;SDS011;38556;47.068;15.408;2023-10-08T14:22:25;33.17;;;30.37;;
1995;SDS011;38556;47.068;15.408;2023-10-08T14:24:54;33.33;;;30.37;;
1995;SDS011;38556;47.068;15.408;2023-10-08T14:27:25;33.57;;;30.87;;
1995;SDS011;38556;47.068;15.408;2023-10-08T14:29:59;32.93;;;30.03;;
1995;SDS011;38556;47.068;15.408;2023-10-08T14:32:31;37.17;;;34.20;;
1995;SDS011;38556;47.068;15.408;2023-10-08T14:35:00;36.63;;;33.33;;
1995;SDS011;38556;47.068;15.408;2023-10-08T14:37:46;34.77;;;31.70;;
1995;SDS011;38556;47.068;15.408;2023-10-08T14:40:32;35.73;;;32.77;;
1995;SDS011;38556;47.068;15.408;2023-10-08T14:43:18;36.90;;;33.30;;
1995;SDS011;38556;47.068;15.408;2023-10-08T14:45:52;35.30;;;32.17;;
1995;SDS011;38556;47.068;15.408;2023-10-08T14:48:21;36.27;;;32.97;;
1995;SDS011;38556;47.068;15.408;2023-10-08T14:50:50;37.23;;;33.60;;
1995;SDS011;38556;47.068;15.408;2023-10-08T14:53:19;34.13;;;31.37;;
1995;SDS011;38556;47.068;15.408;2023-10-08T14:55:51;36.33;;;33.03;;
1995;SDS011;38556;47.068;15.408;2023-10-08T14:58:20;36.80;;;33.90;;
1995;SDS011;38556;47.068;15.408;2023-10-08T15:00:49;35.07;;;32.03;;
1995;SDS011;38556;47.068;15.408;2023-10-08T15:03:21;36.77;;;33.83;;